Terminal Aerodrome Forecast
Issued by NWS

Home | Current Version | Previous Version | Text Only | Print | Product List | Glossary Off
Versions: 1 2 3 4 5 6 7 8 9 10 11 12 13 14 15 16 17 18 19 20

000
FTUS43 KABR 231430 AAA
TAFATY
TAF AMD
KATY 231430Z 2315/2412 15015G20KT P6SM VCTS BKN035CB
     FM231700 17015G22KT P6SM SCT200
     FM240600 17011KT P6SM SCT200 WS020/19040KT
     FM241000 18011KT P6SM SCT200=

USA.gov is the U.S. government's official web portal to all federal, state and local government web resources and services.